UDD weather

Bermuda Dunes Airport
Palm Springs, California, United States

Public forecast

Using degrees Fahrenheit for public forecast. Weather courtesy of forecast.io.

METAR (pilot weather report)

Closest report is Jacqueline Cochran Regional Airport, 9.3 nm (17.2 km) SE. Retrieved 2019/06/19 13:52 UTC (18 minutes ago):

KTRM 191352Z AUTO 00000KT 10SM CLR 26/16 A2983 RMK AO2 SLP103 T02610156

TAF (pilot weather forecast)

Closest forecast is Jacqueline Cochran Regional Airport, 9.3 nm (17.2 km) SE. Retrieved 2019/06/19 12:22 UTC (2 hours ago):

TAF KTRM 191120Z 1912/2012 VRB05KT P6SM SKC FM191600 14010KT P6SM SKC FM200400 33010KT P6SM SKC FM200800 VRB05KT P6SM SKC